Time;durP1;ratioP1;P1;durP2;ratioP2;P2;SDS_P1;SDS_P2;PMS_P1;PMS_P2;Temp;Humidity;BMP_temperature;BMP_pressure;BME280_temperature;BME280_humidity;BME280_pressure;Samples;Min_cycle;Max_cycle;Signal;HPM_P1;HPM_P2
2022/07/22 00:02:06;;;;;;;12.30;3.90;;;15.50;99.90;;;;;;6187859;23;20467;-84
2022/07/22 00:04:31;;;;;;;9.18;3.63;;;15.40;99.90;;;;;;6163426;23;20099;-83
2022/07/22 00:06:57;;;;;;;7.03;3.38;;;15.40;99.90;;;;;;6187791;23;20044;-84
2022/07/22 00:09:23;;;;;;;7.57;3.50;;;15.50;99.90;;;;;;6162811;23;20015;-84
2022/07/22 00:11:49;;;;;;;10.77;3.53;;;15.40;99.90;;;;;;6162437;23;20013;-84
2022/07/22 00:14:15;;;;;;;10.50;3.90;;;15.40;99.90;;;;;;6163278;23;20097;-84
2022/07/22 00:16:40;;;;;;;9.75;4.57;;;15.50;99.90;;;;;;6177613;23;20012;-84
2022/07/22 00:19:06;;;;;;;8.15;3.92;;;15.40;99.90;;;;;;6187516;23;20017;-83
2022/07/22 00:21:31;;;;;;;7.97;3.53;;;15.40;99.90;;;;;;6187018;23;20096;-84
2022/07/22 00:23:57;;;;;;;11.57;4.18;;;15.40;99.90;;;;;;6187704;23;20391;-84
2022/07/22 00:26:23;;;;;;;5.90;4.05;;;15.40;99.90;;;;;;6213105;23;20091;-84
2022/07/22 00:28:48;;;;;;;11.95;3.63;;;15.40;99.90;;;;;;6212434;23;20039;-83
2022/07/22 00:31:14;;;;;;;13.40;4.28;;;15.40;99.90;;;;;;6187088;23;20018;-83
2022/07/22 00:33:39;;;;;;;7.80;3.92;;;15.30;99.90;;;;;;6187620;23;20352;-84
2022/07/22 00:36:06;;;;;;;8.73;3.83;;;15.40;99.90;;;;;;6187588;23;20019;-84
2022/07/22 00:38:32;;;;;;;11.35;4.20;;;15.30;99.90;;;;;;6187458;23;20012;-84
2022/07/22 00:41:01;;;;;;;9.30;3.90;;;15.40;99.90;;;;;;6187212;23;20043;-83
2022/07/22 00:43:26;;;;;;;7.22;3.65;;;15.30;99.90;;;;;;6187606;23;20013;-83
2022/07/22 00:45:52;;;;;;;7.90;3.85;;;15.30;99.90;;;;;;6187067;23;20349;-83
2022/07/22 00:48:18;;;;;;;8.70;3.60;;;15.30;99.90;;;;;;6187665;23;20046;-84
2022/07/22 00:50:44;;;;;;;7.68;3.33;;;15.30;99.90;;;;;;6212340;23;20063;-84
2022/07/22 00:53:10;;;;;;;7.72;3.47;;;15.30;99.90;;;;;;6212568;23;20014;-84
2022/07/22 00:55:36;;;;;;;6.40;3.38;;;15.20;99.90;;;;;;6187609;23;20008;-83
2022/07/22 00:58:03;;;;;;;7.38;3.20;;;15.20;99.90;;;;;;6187201;23;20091;-84
2022/07/22 01:00:29;;;;;;;6.72;2.95;;;15.20;99.90;;;;;;6187019;23;20349;-83
2022/07/22 01:02:55;;;;;;;5.55;3.10;;;15.10;99.90;;;;;;6212591;23;20016;-83
2022/07/22 01:05:21;;;;;;;7.50;3.13;;;15.00;99.90;;;;;;6187615;23;20008;-83
2022/07/22 01:07:46;;;;;;;7.25;3.40;;;15.00;99.90;;;;;;6187238;23;20092;-83
2022/07/22 01:10:13;;;;;;;8.55;3.33;;;14.90;99.90;;;;;;6186017;23;20009;-84
2022/07/22 01:12:39;;;;;;;8.02;3.83;;;14.90;99.90;;;;;;6187128;23;20024;-83
2022/07/22 01:15:05;;;;;;;7.60;3.60;;;14.80;99.90;;;;;;6187719;23;20013;-83
2022/07/22 01:17:31;;;;;;;11.27;3.78;;;14.90;99.90;;;;;;6162716;23;20058;-84
2022/07/22 01:20:07;;;;;;;6.60;3.35;;;14.90;99.90;;;;;;6162511;23;20017;-84
2022/07/22 01:22:33;;;;;;;7.40;3.22;;;14.90;99.90;;;;;;6186688;23;20015;-85
2022/07/22 01:24:59;;;;;;;7.63;3.40;;;14.90;99.90;;;;;;6162287;23;20445;-85
2022/07/22 01:27:24;;;;;;;6.20;3.15;;;14.90;99.90;;;;;;6162920;23;20361;-84
2022/07/22 01:29:50;;;;;;;7.13;3.22;;;14.90;99.90;;;;;;6162595;23;20048;-84
2022/07/22 01:32:16;;;;;;;7.28;3.35;;;14.90;99.90;;;;;;6162014;23;20597;-84
2022/07/22 01:34:43;;;;;;;6.57;3.85;;;14.90;99.90;;;;;;6162693;23;20015;-85
2022/07/22 01:37:09;;;;;;;9.75;3.67;;;14.90;99.90;;;;;;6162879;23;20084;-85
2022/07/22 01:39:35;;;;;;;10.10;4.53;;;14.90;99.90;;;;;;6162039;23;20047;-85
2022/07/22 01:42:00;;;;;;;14.15;4.28;;;14.90;99.90;;;;;;6186769;23;20457;-85
2022/07/22 01:44:26;;;;;;;9.35;3.53;;;14.90;99.90;;;;;;6187613;23;20044;-85
2022/07/22 01:46:53;;;;;;;8.00;3.50;;;14.90;99.90;;;;;;6187660;23;20326;-85
2022/07/22 01:49:19;;;;;;;7.30;3.40;;;14.90;99.90;;;;;;6187380;23;20005;-86
2022/07/22 01:51:45;;;;;;;8.40;3.28;;;14.90;99.90;;;;;;6161891;23;20465;-85
2022/07/22 01:54:10;;;;;;;7.40;3.75;;;14.90;99.90;;;;;;6162502;23;20047;-84
2022/07/22 01:56:36;;;;;;;6.88;3.08;;;14.90;99.90;;;;;;6162410;23;20012;-84
2022/07/22 01:59:02;;;;;;;8.07;3.25;;;14.90;99.90;;;;;;6162584;23;20012;-84
2022/07/22 02:01:27;;;;;;;13.93;3.80;;;15.00;99.90;;;;;;6161786;23;20009;-84
2022/07/22 02:03:53;;;;;;;7.30;3.50;;;14.90;99.90;;;;;;6162531;23;20448;-83
2022/07/22 02:06:19;;;;;;;4.57;2.90;;;14.90;99.90;;;;;;6161333;23;20048;-83
2022/07/22 02:08:44;;;;;;;11.02;3.60;;;14.90;99.90;;;;;;6163168;23;20474;-83
2022/07/22 02:11:10;;;;;;;7.05;3.20;;;14.90;99.90;;;;;;6188863;23;20035;-83
2022/07/22 02:13:35;;;;;;;6.97;3.10;;;14.90;99.90;;;;;;6163858;23;20017;-84
2022/07/22 02:16:02;;;;;;;6.05;3.28;;;14.90;99.90;;;;;;6170756;23;20020;-84
2022/07/22 02:18:28;;;;;;;4.95;3.35;;;14.90;99.90;;;;;;6213763;23;20095;-84
2022/07/22 02:20:53;;;;;;;9.60;3.88;;;14.90;99.90;;;;;;6188615;23;20102;-84
2022/07/22 02:23:19;;;;;;;6.28;3.50;;;14.90;99.90;;;;;;6189192;23;20013;-84
2022/07/22 02:25:45;;;;;;;6.30;3.03;;;14.90;99.90;;;;;;6213942;23;20083;-83
2022/07/22 02:28:11;;;;;;;8.48;3.35;;;14.90;99.90;;;;;;6213994;23;20094;-84
2022/07/22 02:30:37;;;;;;;9.93;4.38;;;14.80;99.90;;;;;;6213723;23;20017;-84
2022/07/22 02:33:03;;;;;;;8.23;3.08;;;14.90;99.90;;;;;;6214080;23;20013;-84
2022/07/22 02:35:29;;;;;;;9.07;3.10;;;14.90;99.90;;;;;;6188767;23;20017;-83
2022/07/22 02:37:55;;;;;;;9.15;3.40;;;14.90;99.90;;;;;;6188822;23;20027;-83
2022/07/22 02:40:20;;;;;;;8.90;2.97;;;14.80;99.90;;;;;;6213554;23;20099;-84
2022/07/22 02:42:46;;;;;;;6.05;3.03;;;14.80;99.90;;;;;;6188877;23;20019;-84
2022/07/22 02:45:12;;;;;;;9.30;3.13;;;14.80;99.90;;;;;;6189141;23;20009;-83
2022/07/22 02:47:49;;;;;;;9.25;2.80;;;14.80;99.90;;;;;;6188797;23;20015;-83
2022/07/22 02:50:15;;;;;;;6.30;2.70;;;14.80;99.90;;;;;;6188413;23;20445;-83
2022/07/22 02:52:41;;;;;;;5.75;2.70;;;14.80;99.90;;;;;;6188648;23;20031;-83
2022/07/22 02:55:07;;;;;;;8.60;3.33;;;14.80;99.90;;;;;;6214076;23;20012;-83
2022/07/22 02:57:32;;;;;;;6.65;2.78;;;14.80;99.90;;;;;;6188312;23;20031;-83
2022/07/22 02:59:58;;;;;;;5.72;2.78;;;14.80;99.90;;;;;;6188372;23;20020;-83
2022/07/22 03:02:23;;;;;;;7.05;2.78;;;14.80;99.90;;;;;;6188427;23;20396;-84
2022/07/22 03:04:49;;;;;;;6.00;3.03;;;14.90;99.90;;;;;;6188072;23;20005;-84
2022/07/22 03:07:15;;;;;;;8.48;2.90;;;14.90;99.90;;;;;;6213508;23;20019;-83
2022/07/22 03:09:40;;;;;;;3.85;2.78;;;14.80;99.90;;;;;;6213731;23;20013;-84
2022/07/22 03:12:06;;;;;;;9.40;2.92;;;14.80;99.90;;;;;;6187872;23;20009;-83
2022/07/22 03:14:32;;;;;;;4.25;2.78;;;14.80;99.90;;;;;;6188310;23;20083;-83
2022/07/22 03:16:57;;;;;;;5.03;2.55;;;14.80;99.90;;;;;;6188298;23;20083;-83
2022/07/22 03:19:23;;;;;;;7.25;2.70;;;14.80;99.90;;;;;;6188245;23;20012;-83
2022/07/22 03:21:48;;;;;;;9.00;2.88;;;14.80;99.90;;;;;;6188346;23;20020;-84
2022/07/22 03:24:14;;;;;;;6.28;2.67;;;14.90;99.90;;;;;;6188323;23;20040;-83
2022/07/22 03:26:39;;;;;;;7.40;2.72;;;14.80;99.90;;;;;;6188034;23;20048;-82
2022/07/22 03:29:05;;;;;;;8.90;2.60;;;14.70;99.90;;;;;;6188493;23;20005;-83
2022/07/22 03:31:31;;;;;;;3.90;2.45;;;14.70;99.90;;;;;;6213133;23;20044;-84
2022/07/22 03:33:56;;;;;;;6.95;2.67;;;14.70;99.90;;;;;;6187854;23;20055;-83
2022/07/22 03:36:22;;;;;;;5.85;2.15;;;14.70;99.90;;;;;;6188338;23;20020;-83
2022/07/22 03:38:48;;;;;;;7.20;2.45;;;14.70;99.90;;;;;;6213428;23;20013;-84
2022/07/22 03:41:13;;;;;;;4.70;2.70;;;14.80;99.90;;;;;;6188039;23;20055;-83
2022/07/22 03:43:39;;;;;;;6.00;2.55;;;14.70;99.90;;;;;;6187835;23;20095;-83
2022/07/22 03:46:04;;;;;;;5.70;2.50;;;14.70;99.90;;;;;;6188355;23;20019;-83
2022/07/22 03:48:30;;;;;;;6.63;2.20;;;14.70;99.90;;;;;;6188244;23;20012;-83
2022/07/22 03:50:56;;;;;;;5.57;2.40;;;14.80;99.90;;;;;;6188219;23;20012;-84
2022/07/22 03:53:21;;;;;;;6.03;2.67;;;14.80;99.90;;;;;;6188212;23;20016;-83
2022/07/22 03:55:47;;;;;;;5.43;2.50;;;14.70;99.90;;;;;;6187948;23;20475;-83
2022/07/22 03:58:13;;;;;;;5.18;2.38;;;14.70;99.90;;;;;;6187438;23;20016;-84
2022/07/22 04:00:38;;;;;;;8.00;2.65;;;14.70;99.90;;;;;;6213240;23;20016;-83
2022/07/22 04:03:04;;;;;;;5.25;2.60;;;14.70;99.90;;;;;;6188091;23;20004;-83
2022/07/22 04:05:29;;;;;;;7.75;2.40;;;14.80;99.90;;;;;;6212941;23;20009;-83
2022/07/22 04:07:55;;;;;;;10.10;2.85;;;14.70;99.90;;;;;;6188103;23;20031;-83
2022/07/22 04:10:24;;;;;;;4.70;2.40;;;14.80;99.90;;;;;;6188007;23;20016;-84
2022/07/22 04:12:49;;;;;;;9.30;2.90;;;14.80;99.90;;;;;;6188181;23;20013;-84
2022/07/22 04:15:15;;;;;;;6.55;2.72;;;14.80;99.90;;;;;;6187786;23;20013;-84
2022/07/22 04:17:41;;;;;;;6.10;2.67;;;14.80;99.90;;;;;;6188792;23;20012;-83
2022/07/22 04:20:07;;;;;;;6.30;2.45;;;14.80;99.90;;;;;;6213525;23;20657;-84
2022/07/22 04:22:33;;;;;;;7.00;3.08;;;14.80;99.90;;;;;;6188419;23;20039;-83
2022/07/22 04:24:58;;;;;;;5.68;2.58;;;14.80;99.90;;;;;;6187876;23;20450;-83
2022/07/22 04:27:24;;;;;;;5.40;2.40;;;14.80;99.90;;;;;;6188948;23;20500;-83
2022/07/22 04:29:50;;;;;;;5.50;2.88;;;14.80;99.90;;;;;;6188271;23;20008;-84
2022/07/22 04:32:15;;;;;;;5.68;2.70;;;14.90;99.90;;;;;;6212923;23;20044;-83
2022/07/22 04:34:41;;;;;;;6.03;2.65;;;14.80;99.90;;;;;;6188346;23;20024;-83
2022/07/22 04:37:07;;;;;;;7.25;2.80;;;14.90;99.90;;;;;;6188766;23;20092;-83
2022/07/22 04:39:33;;;;;;;6.72;2.80;;;14.90;99.90;;;;;;6213941;23;20036;-83
2022/07/22 04:41:59;;;;;;;5.53;2.90;;;14.80;99.90;;;;;;6188348;23;20106;-83
2022/07/22 04:44:24;;;;;;;8.00;2.45;;;14.90;99.90;;;;;;6188083;23;20010;-83
2022/07/22 04:46:50;;;;;;;6.90;2.65;;;14.90;99.90;;;;;;6213567;23;20019;-83
2022/07/22 04:49:15;;;;;;;6.07;3.10;;;14.90;99.90;;;;;;6188812;23;20035;-83
2022/07/22 04:51:41;;;;;;;7.30;2.80;;;15.00;99.90;;;;;;6188482;23;20018;-84
2022/07/22 04:54:06;;;;;;;5.32;2.50;;;14.90;99.90;;;;;;6213305;23;20038;-83
2022/07/22 04:56:32;;;;;;;8.30;2.60;;;15.00;99.90;;;;;;6188482;23;20158;-83
2022/07/22 04:58:57;;;;;;;13.38;3.15;;;15.10;99.90;;;;;;6189099;23;20009;-83
2022/07/22 05:01:23;;;;;;;5.45;2.60;;;15.00;99.90;;;;;;6213606;23;20385;-84
2022/07/22 05:03:49;;;;;;;5.93;2.58;;;15.10;99.90;;;;;;6187614;23;20015;-83
2022/07/22 05:06:15;;;;;;;3.90;2.70;;;15.10;99.90;;;;;;6188656;23;20016;-83
2022/07/22 05:08:40;;;;;;;5.13;2.47;;;15.10;99.90;;;;;;6188390;23;20034;-84
2022/07/22 05:11:07;;;;;;;6.07;3.10;;;15.20;99.90;;;;;;6188423;23;20017;-83
2022/07/22 05:13:32;;;;;;;6.05;2.58;;;15.10;99.90;;;;;;6187736;23;20016;-83
2022/07/22 05:16:02;;;;;;;6.60;2.35;;;15.20;99.90;;;;;;6188664;23;20377;-83
2022/07/22 05:18:28;;;;;;;4.03;2.45;;;15.20;99.90;;;;;;6213244;23;20043;-83
2022/07/22 05:20:53;;;;;;;6.47;2.70;;;15.10;99.90;;;;;;6187478;23;20012;-83
2022/07/22 05:23:19;;;;;;;4.60;2.40;;;15.20;99.90;;;;;;6212864;23;20015;-83
2022/07/22 05:25:44;;;;;;;3.42;2.53;;;15.20;99.90;;;;;;6188218;23;20013;-83
2022/07/22 05:28:10;;;;;;;4.90;2.78;;;15.20;99.90;;;;;;6187907;23;20017;-83
2022/07/22 05:30:36;;;;;;;18.25;3.58;;;15.30;99.90;;;;;;6188242;23;20008;-83
2022/07/22 05:33:01;;;;;;;4.32;2.50;;;15.30;99.90;;;;;;6187642;23;20047;-83
2022/07/22 05:35:27;;;;;;;4.38;2.55;;;15.30;99.90;;;;;;6187633;23;20124;-83
2022/07/22 05:37:52;;;;;;;4.53;2.70;;;15.20;99.90;;;;;;6212713;23;20009;-85
2022/07/22 05:40:18;;;;;;;4.80;2.80;;;15.40;99.90;;;;;;6187530;23;20070;-82
2022/07/22 05:42:44;;;;;;;5.00;2.55;;;15.40;99.90;;;;;;6187215;23;20005;-84
2022/07/22 05:45:10;;;;;;;6.75;2.90;;;15.50;99.90;;;;;;6189525;23;20009;-83
2022/07/22 05:47:35;;;;;;;6.93;2.30;;;15.50;99.90;;;;;;6188611;23;20344;-83
2022/07/22 05:50:01;;;;;;;5.93;2.90;;;15.50;99.90;;;;;;6188647;23;20016;-83
2022/07/22 05:52:26;;;;;;;4.97;3.40;;;15.50;99.90;;;;;;6214303;23;20004;-83
2022/07/22 05:54:53;;;;;;;6.45;3.20;;;15.60;99.90;;;;;;6189626;23;20040;-83
2022/07/22 05:57:18;;;;;;;4.70;2.90;;;15.60;99.90;;;;;;6188730;23;20388;-82
2022/07/22 05:59:44;;;;;;;5.82;2.78;;;15.70;99.90;;;;;;6189326;23;20044;-83
2022/07/22 06:02:09;;;;;;;4.57;2.67;;;15.70;99.90;;;;;;6187192;23;20017;-83
2022/07/22 06:04:35;;;;;;;5.57;2.58;;;15.70;99.90;;;;;;6189095;23;20013;-83
2022/07/22 06:07:01;;;;;;;7.70;3.00;;;15.70;99.90;;;;;;6189346;23;20019;-83
2022/07/22 06:09:27;;;;;;;4.30;2.92;;;15.80;99.90;;;;;;6188724;23;20011;-82
2022/07/22 06:11:52;;;;;;;5.30;3.00;;;15.80;99.90;;;;;;6187738;23;20055;-83
2022/07/22 06:14:18;;;;;;;5.20;3.42;;;15.80;99.90;;;;;;6188949;23;20074;-83
2022/07/22 06:16:43;;;;;;;4.75;3.60;;;15.90;99.90;;;;;;6187791;23;20013;-87
2022/07/22 06:19:09;;;;;;;6.20;3.10;;;16.00;99.90;;;;;;6188245;23;20453;-89
2022/07/22 06:21:36;;;;;;;15.00;3.47;;;16.00;99.90;;;;;;6189198;23;20024;-88
2022/07/22 06:24:01;;;;;;;5.55;2.50;;;16.00;99.90;;;;;;6189072;23;20012;-89
2022/07/22 06:26:27;;;;;;;3.95;2.40;;;16.00;99.90;;;;;;6187026;23;20500;-88
2022/07/22 06:28:52;;;;;;;4.00;2.40;;;16.00;99.90;;;;;;6213426;23;20009;-88
2022/07/22 06:31:18;;;;;;;4.45;1.70;;;16.10;99.90;;;;;;6188852;23;20016;-88
2022/07/22 06:33:44;;;;;;;5.03;2.30;;;16.10;99.90;;;;;;6190516;23;20009;-88
2022/07/22 06:36:14;;;;;;;4.88;2.50;;;16.20;99.90;;;;;;6213790;23;20019;-89
2022/07/22 06:38:39;;;;;;;6.95;2.50;;;16.30;99.90;;;;;;6188152;23;20023;-87
2022/07/22 06:41:05;;;;;;;6.25;2.60;;;16.30;99.90;;;;;;6188972;23;20020;-85
2022/07/22 06:43:31;;;;;;;6.50;2.20;;;16.30;99.90;;;;;;6188821;23;20044;-85
2022/07/22 06:45:56;;;;;;;4.88;2.53;;;16.40;99.90;;;;;;6213328;23;20012;-85
2022/07/22 06:48:22;;;;;;;5.38;2.42;;;16.40;99.90;;;;;;6188843;23;20009;-87
2022/07/22 06:50:48;;;;;;;6.18;2.85;;;16.50;99.90;;;;;;6189130;23;20012;-87
2022/07/22 06:53:13;;;;;;;5.47;2.00;;;16.50;99.90;;;;;;6187842;23;20044;-86
2022/07/22 06:55:39;;;;;;;2.97;2.10;;;16.60;99.90;;;;;;6188112;23;20013;-88
2022/07/22 06:58:04;;;;;;;4.30;1.85;;;16.60;99.90;;;;;;6189762;23;20012;-87
2022/07/22 07:00:30;;;;;;;2.13;1.60;;;16.70;99.90;;;;;;6191010;23;20552;-88
2022/07/22 07:03:00;;;;;;;7.28;2.03;;;16.70;99.90;;;;;;6214807;23;20008;-87
2022/07/22 07:05:27;;;;;;;6.57;1.90;;;16.70;99.90;;;;;;6189323;23;20045;-87
2022/07/22 07:07:53;;;;;;;3.45;1.52;;;16.70;99.90;;;;;;6188506;23;20009;-88
2022/07/22 07:10:18;;;;;;;4.57;2.00;;;16.70;99.90;;;;;;6189542;23;20047;-89
2022/07/22 07:12:44;;;;;;;2.53;1.60;;;16.70;99.90;;;;;;6213709;23;20016;-88
2022/07/22 07:15:11;;;;;;;4.10;1.58;;;16.70;99.90;;;;;;6189117;23;20017;-89
2022/07/22 07:17:37;;;;;;;4.93;1.90;;;16.70;99.90;;;;;;6189176;23;20091;-88
2022/07/22 07:20:04;;;;;;;4.22;1.55;;;16.70;99.90;;;;;;6213856;23;20047;-87
2022/07/22 07:22:29;;;;;;;4.63;1.77;;;16.80;99.90;;;;;;6188399;23;20054;-86
2022/07/22 07:24:55;;;;;;;3.75;2.00;;;16.80;99.90;;;;;;6188212;23;20067;-87
2022/07/22 07:27:21;;;;;;;2.35;1.60;;;17.00;99.90;;;;;;6213115;23;20024;-87
2022/07/22 07:29:47;;;;;;;5.45;1.92;;;17.00;99.90;;;;;;6187794;23;20014;-86
2022/07/22 07:32:12;;;;;;;4.88;1.75;;;17.10;99.90;;;;;;6186130;23;20091;-85
2022/07/22 07:34:38;;;;;;;3.65;1.52;;;17.10;99.90;;;;;;6188594;23;20040;-83
2022/07/22 07:37:04;;;;;;;3.03;1.63;;;17.10;99.90;;;;;;6187218;23;20353;-83
2022/07/22 07:39:29;;;;;;;4.07;1.48;;;17.10;99.90;;;;;;6187572;23;20012;-83
2022/07/22 07:41:55;;;;;;;4.30;1.90;;;17.10;99.90;;;;;;6211557;23;20467;-82
2022/07/22 07:44:21;;;;;;;5.18;1.60;;;17.20;99.90;;;;;;6186279;23;20016;-83
2022/07/22 07:46:46;;;;;;;2.80;1.80;;;17.20;99.90;;;;;;6186500;23;20017;-83
2022/07/22 07:49:12;;;;;;;2.95;1.75;;;17.20;99.90;;;;;;6188375;23;20315;-83
2022/07/22 07:51:38;;;;;;;2.25;1.50;;;17.20;99.90;;;;;;6187170;23;20013;-84
2022/07/22 07:54:03;;;;;;;3.85;1.40;;;17.20;99.90;;;;;;6187066;23;20396;-84
2022/07/22 07:56:29;;;;;;;3.17;1.70;;;17.30;99.90;;;;;;6187362;23;20016;-84
2022/07/22 07:58:54;;;;;;;4.60;1.77;;;17.40;99.90;;;;;;6187215;23;20012;-85
2022/07/22 08:01:20;;;;;;;6.32;1.77;;;17.40;99.90;;;;;;6186907;23;20059;-84
2022/07/22 08:03:46;;;;;;;4.30;1.70;;;17.50;99.90;;;;;;6187943;23;20341;-84
2022/07/22 08:06:11;;;;;;;3.85;1.60;;;17.50;99.90;;;;;;6188121;23;20038;-84
2022/07/22 08:08:37;;;;;;;2.53;1.58;;;17.60;99.90;;;;;;6213290;23;20375;-84
2022/07/22 08:11:03;;;;;;;3.15;1.40;;;17.80;99.90;;;;;;6211413;23;20465;-84
2022/07/22 08:13:28;;;;;;;3.70;1.60;;;17.90;99.90;;;;;;6212048;23;20016;-84
2022/07/22 08:15:55;;;;;;;3.03;1.15;;;18.00;99.90;;;;;;6187853;23;20098;-85
2022/07/22 08:18:21;;;;;;;2.67;1.50;;;18.10;99.90;;;;;;6212285;23;20012;-83
2022/07/22 08:20:46;;;;;;;4.90;1.45;;;18.20;99.90;;;;;;6187490;23;20019;-83
2022/07/22 08:23:12;;;;;;;1.88;0.93;;;18.20;99.90;;;;;;6187319;23;20025;-83
2022/07/22 08:25:38;;;;;;;2.60;1.20;;;18.40;99.90;;;;;;6187993;23;20044;-84
2022/07/22 08:28:04;;;;;;;3.15;1.40;;;18.50;99.90;;;;;;6187903;23;20012;-84
2022/07/22 08:30:30;;;;;;;3.17;1.23;;;18.50;99.90;;;;;;6211640;23;20012;-85
2022/07/22 08:32:56;;;;;;;2.67;1.23;;;18.60;99.90;;;;;;6212233;23;20019;-84
2022/07/22 08:35:21;;;;;;;3.70;1.38;;;18.70;99.90;;;;;;6187730;23;20028;-84
2022/07/22 08:37:47;;;;;;;4.03;1.17;;;18.80;99.90;;;;;;6212911;23;20464;-84
2022/07/22 08:40:14;;;;;;;2.70;1.00;;;18.90;99.90;;;;;;6187370;23;20074;-83
2022/07/22 08:42:42;;;;;;;2.67;1.10;;;19.00;99.90;;;;;;6211214;23;20011;-83
2022/07/22 08:45:09;;;;;;;2.70;1.10;;;19.00;99.90;;;;;;6186837;23;20341;-84
2022/07/22 08:47:35;;;;;;;1.88;0.93;;;19.30;99.90;;;;;;6186130;23;20460;-84
2022/07/22 08:50:01;;;;;;;1.33;1.00;;;19.60;99.90;;;;;;6186814;23;20353;-84
2022/07/22 08:52:27;;;;;;;3.80;1.15;;;19.90;99.90;;;;;;6184950;23;20031;-86
2022/07/22 08:54:53;;;;;;;4.53;1.40;;;20.10;99.90;;;;;;6186322;23;20009;-84
2022/07/22 08:57:19;;;;;;;3.33;0.90;;;20.10;99.90;;;;;;6187604;23;20004;-84
2022/07/22 08:59:56;;;;;;;2.65;1.02;;;20.00;99.90;;;;;;6187275;23;20020;-84
2022/07/22 09:02:22;;;;;;;10.35;1.25;;;19.80;99.90;;;;;;6187348;23;20059;-84
2022/07/22 09:05:02;;;;;;;2.92;1.40;;;19.60;99.90;;;;;;6186599;23;20067;-84
2022/07/22 09:07:29;;;;;;;3.00;1.08;;;19.40;99.90;;;;;;6186865;23;20460;-84
2022/07/22 09:09:55;;;;;;;2.55;1.10;;;19.20;99.90;;;;;;6212664;23;20092;-84
2022/07/22 09:12:22;;;;;;;3.58;1.45;;;19.10;99.90;;;;;;6186551;23;20511;-83
2022/07/22 09:14:50;;;;;;;1.48;1.08;;;18.90;99.90;;;;;;6211351;23;20016;-85
2022/07/22 09:17:28;;;;;;;5.03;1.17;;;18.80;99.90;;;;;;6187332;23;20012;-86
2022/07/22 09:19:55;;;;;;;2.75;1.30;;;18.70;99.90;;;;;;6187266;23;20075;-86
2022/07/22 09:22:42;;;;;;;4.03;1.40;;;18.70;99.90;;;;;;6187304;23;20025;-86
2022/07/22 09:25:22;;;;;;;4.47;1.00;;;18.70;99.90;;;;;;6186485;23;20348;-85
2022/07/22 09:27:50;;;;;;;2.72;1.20;;;18.70;99.90;;;;;;6187668;23;20071;-86
2022/07/22 09:30:22;;;;;;;3.97;1.35;;;18.80;99.90;;;;;;6211709;23;20012;-86
2022/07/22 09:32:48;;;;;;;1.48;1.00;;;18.90;99.90;;;;;;6187478;23;20008;-86
2022/07/22 09:35:15;;;;;;;4.20;1.10;;;19.00;99.90;;;;;;6186399;23;20013;-87
2022/07/22 09:38:02;;;;;;;3.05;1.20;;;19.10;99.90;;;;;;6212504;23;20017;-86
2022/07/22 09:40:35;;;;;;;3.15;1.30;;;19.10;99.90;;;;;;6187308;23;20009;-86
2022/07/22 09:43:11;;;;;;;3.92;1.13;;;19.20;99.90;;;;;;6211814;23;20044;-86
2022/07/22 09:45:53;;;;;;;2.38;1.05;;;19.20;99.90;;;;;;6186978;23;20468;-86
2022/07/22 09:48:21;;;;;;;1.60;0.93;;;19.20;99.90;;;;;;6187449;23;20048;-86
2022/07/22 09:50:48;;;;;;;2.90;1.05;;;19.20;99.90;;;;;;6212025;23;20325;-86
2022/07/22 09:53:16;;;;;;;1.73;0.93;;;19.30;99.90;;;;;;6186297;23;20012;-85
2022/07/22 11:49:29;;;;;;;3.53;1.00;;;19.50;99.90;;;;;;6229778;22;20091;-86
2022/07/22 11:51:55;;;;;;;4.00;1.15;;;19.50;99.90;;;;;;6217784;23;20396;-85
2022/07/22 11:54:21;;;;;;;4.20;1.17;;;19.50;99.90;;;;;;6216744;23;20020;-85
2022/07/22 11:56:47;;;;;;;1.48;1.02;;;19.30;99.90;;;;;;6218198;23;20329;-85
2022/07/22 11:59:15;;;;;;;3.72;1.30;;;19.20;99.90;;;;;;6205627;23;20091;-86
2022/07/22 12:01:41;;;;;;;3.42;1.50;;;19.10;99.90;;;;;;6187222;23;20054;-86
2022/07/22 12:04:12;;;;;;;2.10;1.30;;;19.10;99.90;;;;;;6188775;23;20010;-84
2022/07/22 12:06:40;;;;;;;1.45;1.02;;;19.10;99.90;;;;;;6188233;23;20463;-85
2022/07/22 12:09:12;;;;;;;3.88;1.05;;;19.20;99.90;;;;;;6213073;23;20009;-85
2022/07/22 12:11:40;;;;;;;3.08;0.95;;;19.30;99.90;;;;;;6187603;23;20062;-85
2022/07/22 12:14:16;;;;;;;4.18;1.42;;;19.30;99.90;;;;;;6213157;23;20074;-86
2022/07/22 12:16:44;;;;;;;2.83;1.30;;;19.40;99.90;;;;;;6212711;23;20016;-85
2022/07/22 12:19:12;;;;;;;2.88;1.20;;;19.50;99.90;;;;;;6187915;23;20019;-85
2022/07/22 12:21:58;;;;;;;3.63;1.75;;;19.60;99.90;;;;;;6187662;23;20009;-86
2022/07/22 12:24:35;;;;;;;3.30;1.35;;;19.80;99.90;;;;;;6188054;23;20016;-86
2022/07/22 12:27:07;;;;;;;2.65;1.38;;;20.00;99.90;;;;;;6187257;23;20515;-86
2022/07/22 12:29:35;;;;;;;3.08;1.20;;;20.20;99.90;;;;;;6187948;23;20312;-85
2022/07/22 12:32:10;;;;;;;2.47;1.30;;;20.30;99.90;;;;;;6188207;23;20071;-86
2022/07/22 12:34:57;;;;;;;3.05;1.00;;;20.40;99.90;;;;;;6213082;23;20013;-86
2022/07/22 12:37:25;;;;;;;1.65;1.10;;;20.60;99.90;;;;;;6163539;23;20483;-85
2022/07/22 12:39:56;;;;;;;2.33;1.30;;;20.60;99.90;;;;;;6187984;23;20009;-86
2022/07/22 12:42:22;;;;;;;2.25;1.02;;;20.70;99.90;;;;;;6187519;23;20047;-85
2022/07/22 12:45:01;;;;;;;3.30;1.20;;;20.70;99.90;;;;;;6213119;23;20066;-86
2022/07/22 12:47:51;;;;;;;2.20;1.20;;;20.60;99.90;;;;;;6187602;23;20445;-86
2022/07/22 12:50:29;;;;;;;3.10;1.30;;;20.60;99.90;;;;;;6187341;23;20051;-85
2022/07/22 12:52:57;;;;;;;2.40;1.10;;;20.50;99.90;;;;;;6187321;23;20004;-86
2022/07/22 12:55:24;;;;;;;2.55;1.00;;;20.40;99.90;;;;;;6187897;23;20004;-86
2022/07/22 12:57:49;;;;;;;2.90;1.08;;;20.40;99.90;;;;;;6187755;23;20208;-86
2022/07/22 13:00:22;;;;;;;1.88;1.10;;;20.40;99.90;;;;;;6187324;23;20012;-85
2022/07/22 13:02:48;;;;;;;;;;;20.40;99.90;;;;;;6187735;23;20019;-86
2022/07/22 13:05:14;;;;;;;2.35;1.10;;;20.40;99.90;;;;;;6187894;23;19990;-85
2022/07/22 13:07:40;;;;;;;2.03;1.00;;;20.50;99.90;;;;;;6186928;23;20027;-85
2022/07/22 13:10:06;;;;;;;2.42;1.00;;;20.40;99.90;;;;;;6186010;23;20015;-83
2022/07/22 13:12:32;;;;;;;2.25;1.20;;;20.30;99.90;;;;;;6186977;23;20031;-87
2022/07/22 13:14:58;;;;;;;2.25;0.90;;;20.20;99.90;;;;;;6187435;23;20019;-85
2022/07/22 13:17:23;;;;;;;4.05;1.08;;;20.20;99.90;;;;;;6186377;23;20039;-83
2022/07/22 13:19:49;;;;;;;2.95;1.63;;;20.20;99.90;;;;;;6186824;23;20017;-84
2022/07/22 13:22:14;;;;;;;2.20;1.00;;;20.00;99.90;;;;;;6212062;23;20040;-85
2022/07/22 13:24:40;;;;;;;3.22;1.05;;;20.00;99.90;;;;;;6187348;23;20019;-85
2022/07/22 13:27:05;;;;;;;0.90;0.80;;;19.90;99.90;;;;;;6211419;23;20087;-86
2022/07/22 13:29:31;;;;;;;2.78;1.20;;;19.90;99.90;;;;;;6187453;23;20013;-86
2022/07/22 13:31:57;;;;;;;3.28;1.17;;;19.70;99.90;;;;;;6186248;23;20024;-86
2022/07/22 13:34:22;;;;;;;1.65;1.10;;;19.60;99.90;;;;;;6186293;23;20016;-85
2022/07/22 13:36:48;;;;;;;2.42;1.20;;;19.60;99.90;;;;;;6187123;23;20473;-85
2022/07/22 13:39:14;;;;;;;2.35;1.02;;;19.60;99.90;;;;;;6212406;23;20024;-86
2022/07/22 13:41:39;;;;;;;2.22;1.10;;;19.60;99.90;;;;;;6186978;23;20040;-86
2022/07/22 13:44:07;;;;;;;1.90;0.85;;;19.60;99.90;;;;;;6187658;23;20012;-86
2022/07/22 13:46:36;;;;;;;3.40;1.30;;;19.70;99.90;;;;;;6187529;23;20005;-86
2022/07/22 13:49:02;;;;;;;3.22;0.98;;;19.80;99.90;;;;;;6187504;23;20008;-86
2022/07/22 13:51:28;;;;;;;3.13;1.38;;;19.80;99.90;;;;;;6187152;23;20139;-85
2022/07/22 13:53:54;;;;;;;3.90;1.42;;;19.80;99.90;;;;;;6187415;23;20072;-85
2022/07/22 13:56:19;;;;;;;1.50;1.20;;;19.60;99.90;;;;;;6187826;23;20092;-86
2022/07/22 13:58:45;;;;;;;4.20;1.52;;;19.50;99.90;;;;;;6212218;23;20009;-86
2022/07/22 14:01:11;;;;;;;2.95;1.42;;;19.60;99.90;;;;;;6209681;23;20019;-86
2022/07/22 14:03:38;;;;;;;3.03;1.20;;;19.70;99.90;;;;;;6210683;23;20052;-85
2022/07/22 14:06:05;;;;;;;1.40;1.10;;;19.70;99.90;;;;;;6189322;23;20009;-86
2022/07/22 14:08:31;;;;;;;2.72;1.00;;;19.70;99.90;;;;;;6188450;23;20005;-86
2022/07/22 14:10:57;;;;;;;2.33;1.00;;;19.80;99.90;;;;;;6188361;23;20023;-86
2022/07/22 14:13:23;;;;;;;1.45;0.95;;;19.70;99.90;;;;;;6187081;23;20013;-85
2022/07/22 14:15:48;;;;;;;3.92;1.02;;;19.60;99.90;;;;;;6188141;23;20035;-86
2022/07/22 14:18:14;;;;;;;0.73;0.70;;;19.60;99.90;;;;;;6187625;23;20040;-86
2022/07/22 14:20:40;;;;;;;1.58;0.90;;;19.60;99.90;;;;;;6189026;23;20467;-86
2022/07/22 14:23:07;;;;;;;1.73;0.80;;;19.50;99.90;;;;;;6188579;23;20067;-86
2022/07/22 14:25:33;;;;;;;3.47;1.00;;;19.60;99.90;;;;;;6213866;23;20336;-86
2022/07/22 14:27:58;;;;;;;1.95;1.00;;;19.70;99.90;;;;;;6188294;23;20087;-86
2022/07/22 14:30:24;;;;;;;2.10;0.95;;;19.70;99.90;;;;;;6188933;23;20005;-86
2022/07/22 14:32:50;;;;;;;2.58;1.00;;;19.80;99.90;;;;;;6189019;23;20135;-86
2022/07/22 14:35:16;;;;;;;1.35;0.68;;;19.90;99.90;;;;;;6188744;23;20084;-85
2022/07/22 14:37:41;;;;;;;1.45;0.90;;;19.90;99.90;;;;;;6188835;23;20048;-84